LEGR/GRX METAR and TAF weather

Enter ICAO airport designator
Station Type Date Time Source
LEGR METAR 2020/01/23 18:30 UTC NOAA

LEGR 231830Z 30002KT 9999 FEW035 SCT070 BKN095 09/03 Q1017


Station Type Date Time Source
LEGR Decoded METAR 2020/01/23 18:30 UTC NOAA

Granada / Aeropuerto, Spain (LEGR) 37-11N 003-47W 570M
Jan 23, 2020 - 01:30 PM EST / 2020.01.23 1830 UTC
Wind: from the WNW (300 degrees) at 2 MPH (2 KT):0
Visibility: greater than 7 mile(s):0
Sky conditions: mostly cloudy
Temperature: 48 F (9 C)
Dew Point: 37 F (3 C)
Relative Humidity: 66%
Pressure (altimeter): 30.03 in. Hg (1017 hPa)
ob: LEGR 231830Z 30002KT 9999 FEW035 SCT070 BKN095 09/03 Q1017
cycle: 18

Station Type Date Time Source
LEGR TAF 2020/01/23 15:27 UTC NOAA

TAF LEGR 231400Z 2315/2415 16012KT 9999 FEW030 SCT060 TX14/2315Z TN03/2407Z
BECMG 2321/2323 09004KT

Example: see airport list